createdAt,value
2023-03-13T00:01:03.409Z,6.50
2023-03-13T00:03:31.320Z,6.50
2023-03-13T00:05:59.867Z,6.60
2023-03-13T00:08:30.234Z,6.70
2023-03-13T00:10:58.971Z,6.70
2023-03-13T00:13:28.154Z,6.70
2023-03-13T00:16:01.764Z,6.70
2023-03-13T00:18:29.676Z,6.70
2023-03-13T00:21:01.761Z,6.70
2023-03-13T00:23:30.217Z,6.80
2023-03-13T00:25:59.168Z,6.80
2023-03-13T00:28:31.916Z,6.80
2023-03-13T00:31:04.563Z,6.70
2023-03-13T00:33:33.286Z,6.70
2023-03-13T00:36:01.779Z,6.60
2023-03-13T00:38:30.180Z,6.70
2023-03-13T00:41:03.347Z,6.70
2023-03-13T00:43:33.591Z,6.80
2023-03-13T00:46:02.074Z,6.80
2023-03-13T00:48:30.341Z,6.90
2023-03-13T00:50:58.578Z,6.90
2023-03-13T00:53:26.464Z,6.90
2023-03-13T00:55:56.168Z,7.10
2023-03-13T00:58:25.067Z,7.20
2023-03-13T01:00:55.087Z,7.30
2023-03-13T01:03:26.802Z,7.40
2023-03-13T01:05:58.223Z,7.50
2023-03-13T01:08:28.941Z,7.50
2023-03-13T01:11:01.050Z,7.60
2023-03-13T01:13:29.800Z,7.70
2023-03-13T01:16:03.885Z,7.70
2023-03-13T01:18:31.932Z,7.80
2023-03-13T01:21:00.033Z,7.90
2023-03-13T01:23:28.166Z,7.90
2023-03-13T01:25:56.186Z,8.00
2023-03-13T01:28:24.598Z,8.00
2023-03-13T01:30:53.010Z,8.10
2023-03-13T01:33:22.400Z,8.20
2023-03-13T01:35:50.856Z,8.20
2023-03-13T01:38:19.170Z,8.20
2023-03-13T01:40:49.102Z,8.20
2023-03-13T01:43:28.347Z,8.20
2023-03-13T01:46:06.970Z,8.10
2023-03-13T01:48:58.401Z,8.00
2023-03-13T01:51:29.772Z,8.00
2023-03-13T01:54:05.700Z,7.90
2023-03-13T01:56:39.062Z,7.90
2023-03-13T01:59:10.612Z,7.90
2023-03-13T02:01:39.594Z,7.90
2023-03-13T02:04:09.124Z,7.90
2023-03-13T02:06:40.196Z,7.90
2023-03-13T02:09:12.859Z,7.80
2023-03-13T02:11:48.356Z,7.90
2023-03-13T02:14:18.138Z,7.90
2023-03-13T02:16:51.798Z,8.00
2023-03-13T02:19:29.384Z,8.10
2023-03-13T02:22:03.502Z,8.10
2023-03-13T02:24:38.882Z,8.10
2023-03-13T02:27:08.900Z,8.10
2023-03-13T02:29:40.044Z,8.10
2023-03-13T02:32:08.578Z,8.10
2023-03-13T02:34:40.831Z,8.10
2023-03-13T02:37:12.869Z,8.20
2023-03-13T02:39:46.762Z,8.20
2023-03-13T02:42:19.781Z,8.20
2023-03-13T02:44:50.924Z,8.20
2023-03-13T02:47:20.354Z,8.30
2023-03-13T02:49:48.412Z,8.30
2023-03-13T02:52:21.310Z,8.40
2023-03-13T02:54:52.643Z,8.50
2023-03-13T02:57:23.978Z,8.70
2023-03-13T02:59:51.918Z,8.80
2023-03-13T03:02:20.249Z,8.90
2023-03-13T03:04:48.252Z,9.00
2023-03-13T03:07:16.269Z,9.10
2023-03-13T03:09:44.344Z,9.20
2023-03-13T03:12:18.499Z,9.30
2023-03-13T03:14:48.424Z,9.50
2023-03-13T03:17:17.151Z,9.50
2023-03-13T03:19:45.191Z,9.60
2023-03-13T03:22:13.226Z,9.70
2023-03-13T03:24:41.136Z,9.70
2023-03-13T03:27:09.122Z,9.80
2023-03-13T03:29:42.965Z,9.80
2023-03-13T03:32:12.437Z,9.80
2023-03-13T03:34:40.713Z,9.80
2023-03-13T03:37:09.367Z,9.80
2023-03-13T03:39:37.657Z,9.80
2023-03-13T03:42:07.061Z,9.80
2023-03-13T03:44:35.398Z,9.80
2023-03-13T03:47:04.746Z,9.80
2023-03-13T03:49:38.322Z,9.80
2023-03-13T03:52:07.053Z,9.90
2023-03-13T03:54:39.312Z,9.90
2023-03-13T03:57:07.266Z,10.00
2023-03-13T03:59:36.639Z,10.00
2023-03-13T04:02:07.795Z,10.00
2023-03-13T04:04:37.869Z,10.10
2023-03-13T04:07:16.168Z,10.10
2023-03-13T04:09:45.006Z,10.20
2023-03-13T04:12:21.820Z,10.30
2023-03-13T04:14:52.448Z,10.40
2023-03-13T04:17:21.700Z,10.50
2023-03-13T04:19:51.561Z,10.70
2023-03-13T04:22:19.489Z,10.80
2023-03-13T04:24:51.579Z,11.00
2023-03-13T04:27:21.679Z,11.20
2023-03-13T04:29:51.163Z,11.40
2023-03-13T04:32:37.545Z,11.50
2023-03-13T04:35:33.225Z,11.60
2023-03-13T04:38:20.013Z,11.60
2023-03-13T04:40:58.428Z,11.70
2023-03-13T04:43:38.303Z,11.80
2023-03-13T04:46:16.657Z,11.90
2023-03-13T04:48:54.208Z,11.90
2023-03-13T04:51:41.921Z,11.90
2023-03-13T04:54:17.940Z,12.00
2023-03-13T04:57:03.879Z,12.00
2023-03-13T04:59:42.838Z,12.00
2023-03-13T05:02:29.062Z,12.00
2023-03-13T05:05:26.151Z,12.00
2023-03-13T05:08:14.703Z,12.00
2023-03-13T05:10:56.765Z,12.00
2023-03-13T05:13:43.073Z,12.00
2023-03-13T05:16:22.893Z,12.00
2023-03-13T05:19:09.661Z,12.00
2023-03-13T05:22:03.540Z,12.00
2023-03-13T05:24:56.311Z,12.00
2023-03-13T05:27:42.180Z,12.00
2023-03-13T05:30:31.872Z,12.10
2023-03-13T05:33:26.524Z,12.10
2023-03-13T05:36:04.784Z,12.10
2023-03-13T05:38:32.755Z,12.10
2023-03-13T05:41:25.090Z,12.10
2023-03-13T05:44:01.514Z,12.10
2023-03-13T05:46:55.394Z,12.10
2023-03-13T05:49:41.792Z,12.10
2023-03-13T05:52:20.388Z,12.10
2023-03-13T05:55:11.410Z,12.10
2023-03-13T05:58:06.640Z,12.20
2023-03-13T06:00:54.808Z,12.20
2023-03-13T06:03:46.631Z,12.20
2023-03-13T06:06:16.271Z,12.20
2023-03-13T06:08:47.854Z,12.30
2023-03-13T06:11:15.994Z,12.30
2023-03-13T06:13:45.457Z,12.30
2023-03-13T06:16:24.774Z,12.30
2023-03-13T06:18:54.818Z,12.30
2023-03-13T06:21:22.812Z,12.40
2023-03-13T06:23:50.792Z,12.40
2023-03-13T06:26:18.729Z,12.50
2023-03-13T06:28:48.024Z,12.50
2023-03-13T06:31:15.946Z,12.50
2023-03-13T06:33:43.888Z,12.60
2023-03-13T06:36:11.988Z,12.50
2023-03-13T06:38:40.015Z,12.60
2023-03-13T06:41:08.206Z,12.60
2023-03-13T06:43:36.079Z,12.60
2023-03-13T06:46:09.250Z,12.70
2023-03-13T06:48:37.159Z,12.70
2023-03-13T06:51:05.563Z,12.70
2023-03-13T06:53:33.540Z,12.70
2023-03-13T06:56:02.827Z,12.70
2023-03-13T06:58:32.832Z,12.70
2023-03-13T07:01:01.306Z,12.70
2023-03-13T07:03:30.576Z,12.70
2023-03-13T07:05:58.940Z,12.80
2023-03-13T07:08:27.220Z,12.80
2023-03-13T07:10:59.048Z,12.80
2023-03-13T07:13:27.329Z,12.80
2023-03-13T07:15:55.792Z,12.80
2023-03-13T07:18:24.290Z,12.80
2023-03-13T07:20:57.827Z,12.90
2023-03-13T07:23:27.217Z,12.80
2023-03-13T07:25:56.034Z,12.90
2023-03-13T07:28:24.886Z,12.90
2023-03-13T07:30:53.159Z,12.90
2023-03-13T07:33:21.374Z,12.90
2023-03-13T07:35:50.350Z,12.90
2023-03-13T07:38:20.348Z,12.90
2023-03-13T07:40:52.254Z,12.90
2023-03-13T07:43:20.754Z,12.90
2023-03-13T07:45:53.968Z,12.90
2023-03-13T07:48:22.963Z,13.00
2023-03-13T07:50:51.457Z,13.00
2023-03-13T07:53:22.013Z,13.00
2023-03-13T07:55:54.874Z,13.00
2023-03-13T07:58:23.157Z,13.00
2023-03-13T08:00:51.115Z,13.10
2023-03-13T08:03:19.219Z,13.10
2023-03-13T08:05:47.487Z,13.20
2023-03-13T08:08:15.476Z,13.20
2023-03-13T08:10:45.259Z,13.20
2023-03-13T08:13:13.118Z,13.30
2023-03-13T08:15:40.985Z,13.40
2023-03-13T08:18:08.994Z,13.50
2023-03-13T08:20:36.960Z,13.60
2023-03-13T08:23:05.065Z,13.70
2023-03-13T08:25:33.715Z,13.90
2023-03-13T08:28:03.003Z,14.00
2023-03-13T08:30:30.997Z,14.00
2023-03-13T08:32:59.041Z,14.10
2023-03-13T08:35:27.018Z,14.10
2023-03-13T08:37:54.941Z,14.10
2023-03-13T08:40:22.815Z,14.10
2023-03-13T08:42:51.696Z,14.20
2023-03-13T08:45:20.959Z,14.20
2023-03-13T08:47:54.205Z,14.30
2023-03-13T08:50:22.099Z,14.50
2023-03-13T08:52:50.128Z,14.60
2023-03-13T08:55:18.289Z,14.60
2023-03-13T08:57:46.685Z,14.60
2023-03-13T09:00:15.911Z,14.70
2023-03-13T09:02:45.240Z,14.70
2023-03-13T09:05:13.149Z,14.70
2023-03-13T09:07:41.080Z,14.60
2023-03-13T09:10:09.968Z,14.70
2023-03-13T09:12:37.897Z,14.60
2023-03-13T09:15:07.308Z,14.60
2023-03-13T09:17:35.234Z,14.60
2023-03-13T09:20:05.568Z,14.70
2023-03-13T09:22:33.446Z,14.80
2023-03-13T09:25:01.264Z,14.80
2023-03-13T09:27:29.267Z,14.80
2023-03-13T09:29:57.135Z,14.80
2023-03-13T09:32:25.841Z,14.90
2023-03-13T09:34:54.077Z,15.00
2023-03-13T09:37:23.438Z,14.90
2023-03-13T09:39:51.465Z,14.90
2023-03-13T09:42:22.806Z,14.90
2023-03-13T09:44:54.872Z,14.90
2023-03-13T09:47:25.681Z,15.00
2023-03-13T09:49:56.662Z,15.10
2023-03-13T09:52:27.709Z,15.20
2023-03-13T09:54:59.996Z,15.30
2023-03-13T09:57:34.381Z,15.40
2023-03-13T10:00:07.840Z,15.70
2023-03-13T10:02:37.970Z,15.90
2023-03-13T10:05:17.713Z,16.10
2023-03-13T10:07:47.207Z,16.20
2023-03-13T10:10:18.123Z,16.10
2023-03-13T10:12:48.078Z,16.10
2023-03-13T10:15:44.490Z,16.20
2023-03-13T10:18:17.540Z,16.20
2023-03-13T10:20:48.246Z,16.60
2023-03-13T10:23:28.520Z,17.10
2023-03-13T10:25:56.576Z,17.60
2023-03-13T10:28:25.766Z,17.60
2023-03-13T10:30:58.851Z,17.70
2023-03-13T10:33:28.168Z,17.90
2023-03-13T10:36:05.981Z,18.30
2023-03-13T10:38:46.490Z,18.10
2023-03-13T10:41:26.599Z,17.80
2023-03-13T10:43:55.982Z,17.70
2023-03-13T10:46:28.478Z,17.70
2023-03-13T10:48:57.251Z,17.70
2023-03-13T10:51:38.018Z,17.70
2023-03-13T10:54:17.881Z,17.70
2023-03-13T10:56:46.040Z,17.60
2023-03-13T10:59:23.926Z,17.90
2023-03-13T11:01:52.201Z,18.30
2023-03-13T11:04:22.711Z,18.50
2023-03-13T11:06:53.584Z,18.50
2023-03-13T11:09:22.789Z,18.80
2023-03-13T11:11:53.796Z,18.70
2023-03-13T11:14:23.848Z,18.60
2023-03-13T11:16:55.169Z,18.50
2023-03-13T11:19:33.932Z,18.40
2023-03-13T11:22:16.906Z,18.50
2023-03-13T11:24:51.307Z,18.50
2023-03-13T11:27:28.498Z,18.60
2023-03-13T11:30:09.432Z,18.80
2023-03-13T11:32:44.262Z,18.90
2023-03-13T11:35:27.671Z,19.20
2023-03-13T11:37:57.447Z,19.90
2023-03-13T11:40:32.816Z,20.20
2023-03-13T11:43:42.113Z,20.30
2023-03-13T11:46:30.735Z,20.60
2023-03-13T11:49:33.994Z,20.60
2023-03-13T11:52:11.590Z,20.80
2023-03-13T11:55:04.360Z,21.30
2023-03-13T11:57:41.227Z,21.40
2023-03-13T12:00:25.978Z,21.50
2023-03-13T12:02:58.479Z,21.50
2023-03-13T12:05:27.276Z,21.70
2023-03-13T12:08:00.588Z,21.80
2023-03-13T12:10:32.036Z,21.80
2023-03-13T12:13:06.445Z,21.60
2023-03-13T12:15:38.959Z,21.40
2023-03-13T12:18:16.030Z,21.20
2023-03-13T12:20:50.096Z,21.40
2023-03-13T12:23:20.468Z,21.70
2023-03-13T12:25:53.517Z,21.70
2023-03-13T12:28:30.016Z,21.60
2023-03-13T12:31:05.076Z,21.80
2023-03-13T12:33:39.045Z,22.00
2023-03-13T12:36:14.283Z,22.20
2023-03-13T12:38:47.427Z,22.10
2023-03-13T12:41:25.617Z,22.20
2023-03-13T12:44:11.520Z,22.70
2023-03-13T12:46:45.042Z,23.20
2023-03-13T12:49:38.368Z,23.50
2023-03-13T12:52:23.636Z,23.10
2023-03-13T12:55:20.007Z,23.10
2023-03-13T12:58:15.902Z,23.60
2023-03-13T13:00:47.233Z,23.30
2023-03-13T13:03:30.832Z,23.40
2023-03-13T13:06:07.318Z,23.30
2023-03-13T13:08:38.827Z,23.00
2023-03-13T13:11:55.791Z,22.40
2023-03-13T13:15:12.809Z,22.10
2023-03-13T13:17:54.773Z,22.10
2023-03-13T13:20:41.368Z,22.50
2023-03-13T13:23:34.616Z,22.40
2023-03-13T13:26:51.102Z,22.50
2023-03-13T13:29:58.798Z,22.30
2023-03-13T13:32:39.879Z,22.00
2023-03-13T13:35:22.737Z,21.90
2023-03-13T13:37:50.802Z,21.80
2023-03-13T13:40:28.838Z,21.60
2023-03-13T13:42:58.101Z,21.40
2023-03-13T13:45:29.638Z,21.30
2023-03-13T13:48:28.377Z,21.10
2023-03-13T13:51:26.329Z,21.20
2023-03-13T13:53:56.976Z,21.50
2023-03-13T13:56:33.355Z,21.80
2023-03-13T13:59:04.345Z,21.90
2023-03-13T14:01:33.373Z,22.10
2023-03-13T14:04:13.021Z,22.10
2023-03-13T14:06:45.594Z,22.10
2023-03-13T14:09:23.557Z,22.10
2023-03-13T14:11:51.573Z,22.20
2023-03-13T14:14:20.931Z,22.20
2023-03-13T14:16:50.441Z,22.10
2023-03-13T14:19:27.126Z,22.20
2023-03-13T14:22:01.837Z,22.50
2023-03-13T14:24:29.790Z,22.40
2023-03-13T14:26:58.107Z,22.80
2023-03-13T14:29:26.877Z,22.90
2023-03-13T14:31:56.359Z,23.30
2023-03-13T14:34:24.867Z,23.90
2023-03-13T14:37:04.313Z,24.50
2023-03-13T14:39:46.109Z,24.90
2023-03-13T14:42:16.222Z,25.20
2023-03-13T14:44:47.214Z,25.30
2023-03-13T14:47:23.721Z,25.70
2023-03-13T14:49:58.741Z,25.50
2023-03-13T14:52:28.814Z,25.40
2023-03-13T14:55:02.133Z,25.80
2023-03-13T14:57:30.250Z,26.00
2023-03-13T15:00:30.153Z,25.80
2023-03-13T15:03:13.474Z,25.60
2023-03-13T15:05:41.372Z,25.80
2023-03-13T15:08:15.375Z,25.90
2023-03-13T15:10:45.585Z,25.80
2023-03-13T15:13:17.947Z,25.70
2023-03-13T15:15:47.741Z,25.40
2023-03-13T15:18:20.937Z,24.70
2023-03-13T15:20:53.052Z,24.50
2023-03-13T15:23:21.986Z,24.10
2023-03-13T15:25:51.430Z,23.60
2023-03-13T15:28:21.989Z,23.10
2023-03-13T15:30:52.145Z,22.90
2023-03-13T15:33:22.629Z,22.70
2023-03-13T15:35:51.325Z,22.50
2023-03-13T15:38:21.413Z,22.40
2023-03-13T15:40:51.232Z,22.30
2023-03-13T15:43:20.116Z,22.20
2023-03-13T15:45:51.651Z,21.90
2023-03-13T15:48:21.683Z,21.90
2023-03-13T15:50:51.541Z,21.90
2023-03-13T15:53:21.067Z,21.90
2023-03-13T15:55:52.928Z,21.80
2023-03-13T15:58:20.955Z,21.70
2023-03-13T16:00:49.323Z,21.70
2023-03-13T16:03:19.301Z,21.70
2023-03-13T16:05:48.924Z,21.70
2023-03-13T16:08:25.961Z,21.60
2023-03-13T16:11:03.513Z,21.60
2023-03-13T16:13:31.882Z,21.50
2023-03-13T16:15:59.870Z,21.40
2023-03-13T16:18:27.767Z,21.40
2023-03-13T16:20:55.681Z,21.40
2023-03-13T16:23:23.561Z,21.40
2023-03-13T16:25:51.923Z,21.40
2023-03-13T16:28:21.336Z,21.30
2023-03-13T16:30:49.337Z,21.20
2023-03-13T16:33:17.385Z,21.20
2023-03-13T16:35:45.605Z,21.10
2023-03-13T16:38:13.545Z,21.00
2023-03-13T16:40:41.444Z,20.90
2023-03-13T16:43:13.404Z,20.90
2023-03-13T16:45:43.272Z,20.90
2023-03-13T16:48:18.368Z,20.80
2023-03-13T16:50:46.612Z,20.70
2023-03-13T16:53:14.528Z,20.70
2023-03-13T16:55:42.462Z,20.60
2023-03-13T16:58:12.688Z,20.50
2023-03-13T17:00:41.968Z,20.50
2023-03-13T17:03:09.844Z,20.40
2023-03-13T17:05:37.826Z,20.40
2023-03-13T17:08:06.200Z,20.30
2023-03-13T17:10:35.049Z,20.20
2023-03-13T17:13:03.426Z,20.10
2023-03-13T17:15:31.372Z,20.10
2023-03-13T17:18:00.666Z,20.00
2023-03-13T17:20:30.800Z,20.00
2023-03-13T17:23:00.884Z,19.90
2023-03-13T17:25:28.967Z,19.90
2023-03-13T17:27:56.833Z,19.80
2023-03-13T17:30:27.090Z,19.70
2023-03-13T17:32:55.256Z,19.60
2023-03-13T17:35:24.864Z,19.60
2023-03-13T17:37:53.033Z,19.60
2023-03-13T17:40:23.243Z,19.50
2023-03-13T17:42:51.244Z,19.40
2023-03-13T17:45:19.926Z,19.40
2023-03-13T17:47:49.077Z,19.30
2023-03-13T17:50:19.117Z,19.20
2023-03-13T17:52:48.546Z,19.10
2023-03-13T17:55:17.452Z,19.00
2023-03-13T17:57:45.431Z,18.90
2023-03-13T18:00:21.241Z,18.90
2023-03-13T18:02:50.156Z,18.80
2023-03-13T18:05:18.665Z,18.70
2023-03-13T18:07:48.128Z,18.70
2023-03-13T18:10:22.005Z,18.60
2023-03-13T18:12:51.272Z,18.50
2023-03-13T18:15:19.773Z,18.40
2023-03-13T18:17:48.377Z,18.30
2023-03-13T18:20:18.480Z,18.30
2023-03-13T18:22:47.905Z,18.20
2023-03-13T18:25:15.882Z,18.10
2023-03-13T18:27:43.863Z,18.00
2023-03-13T18:30:17.083Z,18.00
2023-03-13T18:32:45.820Z,18.00
2023-03-13T18:35:14.648Z,17.90
2023-03-13T18:37:44.712Z,17.80
2023-03-13T18:40:18.834Z,17.40
2023-03-13T18:42:47.080Z,16.90
2023-03-13T18:45:16.389Z,16.40
2023-03-13T18:47:44.403Z,15.90
2023-03-13T18:50:20.381Z,15.20
2023-03-13T18:52:48.290Z,14.70
2023-03-13T18:55:17.776Z,14.20
2023-03-13T18:57:45.772Z,14.00
2023-03-13T19:00:17.228Z,13.90
2023-03-13T19:02:45.716Z,13.80
2023-03-13T19:05:13.782Z,13.70
2023-03-13T19:07:41.713Z,13.70
2023-03-13T19:10:21.364Z,13.70
2023-03-13T19:12:49.270Z,13.70
2023-03-13T19:15:17.404Z,13.70
2023-03-13T19:17:45.750Z,13.70
2023-03-13T19:20:16.427Z,13.60
2023-03-13T19:22:44.343Z,13.60
2023-03-13T19:25:14.097Z,13.60
2023-03-13T19:27:43.550Z,13.50
2023-03-13T19:30:19.142Z,13.60
2023-03-13T19:32:47.377Z,13.60
2023-03-13T19:35:18.648Z,13.70
2023-03-13T19:37:46.959Z,13.90
2023-03-13T19:40:19.308Z,13.90
2023-03-13T19:42:48.678Z,13.90
2023-03-13T19:45:19.593Z,13.90
2023-03-13T19:47:47.773Z,14.00
2023-03-13T19:50:18.967Z,13.90
2023-03-13T19:52:47.032Z,13.80
2023-03-13T19:55:15.451Z,13.70
2023-03-13T19:57:43.535Z,13.70
2023-03-13T20:00:20.316Z,13.60
2023-03-13T20:02:48.287Z,13.60
2023-03-13T20:05:16.288Z,13.40
2023-03-13T20:07:44.202Z,13.20
2023-03-13T20:10:12.986Z,13.10
2023-03-13T20:12:41.159Z,13.00
2023-03-13T20:15:10.580Z,12.80
2023-03-13T20:17:39.932Z,12.70
2023-03-13T20:20:08.882Z,12.00
2023-03-13T20:22:36.996Z,11.60
2023-03-13T20:25:05.105Z,11.20
2023-03-13T20:27:32.974Z,10.90
2023-03-13T20:30:01.160Z,10.70
2023-03-13T20:32:29.101Z,10.60
2023-03-13T20:34:58.438Z,10.50
2023-03-13T20:37:26.513Z,10.50
2023-03-13T20:39:54.468Z,10.40
2023-03-13T20:42:22.665Z,10.40
2023-03-13T20:44:51.140Z,10.40
2023-03-13T20:47:19.477Z,10.40
2023-03-13T20:49:47.362Z,10.40
2023-03-13T20:52:17.096Z,10.40
2023-03-13T20:54:45.082Z,10.40
2023-03-13T20:57:16.112Z,10.40
2023-03-13T20:59:44.025Z,10.50
2023-03-13T21:02:11.944Z,10.50
2023-03-13T21:04:40.058Z,10.40
2023-03-13T21:07:07.968Z,10.40
2023-03-13T21:09:37.201Z,10.40
2023-03-13T21:12:05.551Z,10.30
2023-03-13T21:14:35.137Z,10.40
2023-03-13T21:17:04.120Z,10.40
2023-03-13T21:19:34.006Z,10.30
2023-03-13T21:22:01.945Z,10.30
2023-03-13T21:24:29.819Z,10.30
2023-03-13T21:26:59.803Z,10.30
2023-03-13T21:29:27.865Z,10.20
2023-03-13T21:31:55.911Z,10.20
2023-03-13T21:34:23.878Z,10.20
2023-03-13T21:36:51.779Z,10.20
2023-03-13T21:39:19.872Z,10.20
2023-03-13T21:41:47.783Z,10.20
2023-03-13T21:44:19.562Z,10.20
2023-03-13T21:46:48.485Z,10.30
2023-03-13T21:49:16.475Z,10.30
2023-03-13T21:51:44.444Z,10.30
2023-03-13T21:54:12.358Z,10.20
2023-03-13T21:56:40.206Z,10.20
2023-03-13T21:59:08.085Z,10.20
2023-03-13T22:01:37.337Z,10.20
2023-03-13T22:04:05.481Z,10.10
2023-03-13T22:06:33.368Z,10.10
2023-03-13T22:09:02.649Z,10.00
2023-03-13T22:11:30.589Z,10.00
2023-03-13T22:13:58.427Z,10.00
2023-03-13T22:16:26.532Z,10.00
2023-03-13T22:18:56.062Z,10.00
2023-03-13T22:21:23.929Z,10.00
2023-03-13T22:23:51.875Z,10.00
2023-03-13T22:26:20.011Z,10.00
2023-03-13T22:28:48.132Z,9.90
2023-03-13T22:31:16.072Z,9.90
2023-03-13T22:33:44.047Z,9.90
2023-03-13T22:36:13.517Z,9.90
2023-03-13T22:38:41.488Z,9.90
2023-03-13T22:41:12.846Z,9.90
2023-03-13T22:43:41.049Z,9.90
2023-03-13T22:46:09.948Z,9.90
2023-03-13T22:48:38.725Z,9.90
2023-03-13T22:51:09.180Z,9.90
2023-03-13T22:53:40.088Z,9.90
2023-03-13T22:56:10.184Z,9.90
2023-03-13T22:58:38.725Z,9.80
2023-03-13T23:01:07.801Z,9.80
2023-03-13T23:03:36.068Z,9.90
2023-03-13T23:06:06.365Z,9.90
2023-03-13T23:08:34.392Z,9.80
2023-03-13T23:11:05.090Z,9.90
2023-03-13T23:13:33.072Z,9.80
2023-03-13T23:16:01.095Z,9.80
2023-03-13T23:18:29.173Z,9.90
2023-03-13T23:20:57.200Z,9.80
2023-03-13T23:23:25.295Z,9.90
2023-03-13T23:25:53.202Z,9.90
2023-03-13T23:28:22.436Z,9.90
2023-03-13T23:30:50.318Z,9.90
2023-03-13T23:33:18.188Z,9.90
2023-03-13T23:35:46.876Z,10.00
2023-03-13T23:38:18.183Z,10.00
2023-03-13T23:40:46.599Z,10.10
2023-03-13T23:43:14.520Z,10.10
2023-03-13T23:45:43.769Z,10.10
2023-03-13T23:48:11.619Z,10.10
2023-03-13T23:50:39.463Z,10.10
2023-03-13T23:53:07.307Z,10.10
2023-03-13T23:55:35.156Z,10.10
2023-03-13T23:58:03.065Z,10.10
